createdAt,value
2017-08-20T00:00:35.760Z,15.46
2017-08-20T00:01:16.340Z,15.38
2017-08-20T00:01:56.821Z,15.38
2017-08-20T00:02:37.346Z,15.46
2017-08-20T00:03:17.894Z,15.37
2017-08-20T00:04:11.080Z,15.43
2017-08-20T00:05:04.237Z,15.44
2017-08-20T00:05:44.881Z,15.46
2017-08-20T00:06:25.226Z,15.44
2017-08-20T00:07:05.661Z,15.4
2017-08-20T00:07:48.441Z,15.53
2017-08-20T00:08:29.553Z,15.46
2017-08-20T00:09:10.747Z,15.41
2017-08-20T00:09:51.216Z,15.44
2017-08-20T00:10:53.273Z,15.41
2017-08-20T00:13:08.339Z,15.41
2017-08-20T00:13:48.515Z,15.43
2017-08-20T00:14:28.940Z,15.41
2017-08-20T00:15:09.309Z,15.38
2017-08-20T00:15:49.760Z,15.46
2017-08-20T00:17:39.379Z,15.48
2017-08-20T00:18:32.136Z,15.34
2017-08-20T00:19:12.552Z,15.33
2017-08-20T00:19:52.960Z,15.34
2017-08-20T00:23:22.681Z,15.41
2017-08-20T00:24:05.776Z,15.4
2017-08-20T00:24:46.232Z,15.43
2017-08-20T00:25:26.634Z,15.43
2017-08-20T00:26:07.066Z,15.44
2017-08-20T00:26:47.466Z,15.44
2017-08-20T00:27:27.821Z,15.33
2017-08-20T00:31:18.401Z,15.48
2017-08-20T00:31:59.288Z,15.38
2017-08-20T00:32:39.733Z,15.37
2017-08-20T00:33:20.084Z,15.38
2017-08-20T00:34:00.482Z,15.37
2017-08-20T00:34:40.901Z,15.34
2017-08-20T00:35:21.323Z,15.4
2017-08-20T00:36:01.734Z,15.43
2017-08-20T00:36:42.220Z,15.35
2017-08-20T00:37:22.550Z,15.4
2017-08-20T00:38:03.104Z,15.4
2017-08-20T00:38:43.375Z,15.28
2017-08-20T00:39:23.778Z,15.34
2017-08-20T00:40:04.188Z,15.3
2017-08-20T00:40:44.884Z,15.34
2017-08-20T00:41:25.770Z,15.28
2017-08-20T00:42:06.551Z,15.31
2017-08-20T00:42:46.996Z,15.27
2017-08-20T00:43:27.347Z,15.33
2017-08-20T00:44:07.918Z,15.38
2017-08-20T00:44:48.494Z,15.38
2017-08-20T00:45:28.974Z,15.34
2017-08-20T00:46:09.338Z,15.34
2017-08-20T00:46:49.784Z,15.41
2017-08-20T00:47:30.295Z,15.38
2017-08-20T00:50:01.472Z,15.43
2017-08-20T00:52:24.370Z,15.3
2017-08-20T00:53:20.012Z,15.3
2017-08-20T00:54:59.482Z,15.34
2017-08-20T00:55:39.287Z,15.44
2017-08-20T00:56:19.663Z,15.28
2017-08-20T00:57:00.111Z,15.3
2017-08-20T00:57:40.550Z,15.34
2017-08-20T00:58:20.905Z,15.34
2017-08-20T00:59:01.351Z,15.3
2017-08-20T00:59:41.822Z,15.28
2017-08-20T01:00:22.196Z,15.22
2017-08-20T01:01:02.602Z,15.27
2017-08-20T01:01:42.963Z,15.15
2017-08-20T01:02:23.525Z,15.11
2017-08-20T01:03:03.890Z,15.15
2017-08-20T01:03:44.284Z,14.98
2017-08-20T01:04:24.731Z,15.03
2017-08-20T01:05:05.122Z,15.04
2017-08-20T01:05:45.618Z,15.03
2017-08-20T01:06:25.979Z,15.01
2017-08-20T01:07:06.398Z,15.07
2017-08-20T01:07:46.822Z,15.01
2017-08-20T01:08:27.205Z,15.01
2017-08-20T01:09:07.654Z,15.01
2017-08-20T01:09:48.064Z,14.98
2017-08-20T01:10:28.420Z,14.91
2017-08-20T01:11:08.886Z,14.95
2017-08-20T01:13:12.178Z,14.9
2017-08-20T01:15:10.326Z,14.93
2017-08-20T01:15:50.937Z,14.93
2017-08-20T01:16:31.344Z,14.8
2017-08-20T01:17:11.771Z,14.83
2017-08-20T01:17:52.143Z,14.75
2017-08-20T01:18:32.508Z,14.79
2017-08-20T01:19:12.915Z,14.74
2017-08-20T01:19:53.373Z,14.74
2017-08-20T01:20:33.742Z,14.79
2017-08-20T01:21:14.189Z,14.8
2017-08-20T01:21:54.551Z,14.8
2017-08-20T01:22:35.048Z,14.79
2017-08-20T01:23:15.410Z,14.79
2017-08-20T01:23:55.871Z,14.85
2017-08-20T01:24:36.219Z,14.78
2017-08-20T01:25:16.966Z,14.79
2017-08-20T01:25:57.482Z,14.69
2017-08-20T01:26:37.958Z,14.85
2017-08-20T01:27:18.307Z,14.82
2017-08-20T01:27:58.764Z,14.74
2017-08-20T01:28:39.134Z,14.72
2017-08-20T01:29:19.554Z,14.71
2017-08-20T01:30:00.011Z,14.74
2017-08-20T01:30:40.424Z,14.71
2017-08-20T01:31:20.903Z,14.63
2017-08-20T01:32:01.521Z,14.66
2017-08-20T01:32:41.995Z,14.64
2017-08-20T01:33:22.447Z,14.61
2017-08-20T01:34:02.833Z,14.6
2017-08-20T01:34:43.275Z,14.61
2017-08-20T01:35:23.691Z,14.61
2017-08-20T01:36:04.108Z,14.61
2017-08-20T01:36:44.544Z,14.61
2017-08-20T01:37:24.954Z,14.61
2017-08-20T01:38:05.398Z,14.49
2017-08-20T01:38:45.846Z,14.54
2017-08-20T01:39:26.199Z,14.48
2017-08-20T01:40:06.629Z,14.31
2017-08-20T01:40:47.098Z,14.36
2017-08-20T01:41:27.429Z,14.27
2017-08-20T01:42:07.831Z,14.29
2017-08-20T01:42:48.214Z,14.27
2017-08-20T01:43:28.572Z,14.23
2017-08-20T01:44:09.031Z,14.17
2017-08-20T01:44:49.423Z,14.23
2017-08-20T01:45:29.803Z,14.19
2017-08-20T01:46:10.204Z,14.13
2017-08-20T01:46:50.629Z,14.11
2017-08-20T01:47:30.972Z,14.2
2017-08-20T01:48:11.434Z,14.2
2017-08-20T01:48:51.858Z,14.3
2017-08-20T01:49:32.250Z,14.27
2017-08-20T01:50:12.738Z,14.31
2017-08-20T01:50:52.992Z,14.24
2017-08-20T01:52:34.837Z,14.3
2017-08-20T01:53:31.278Z,14.26
2017-08-20T01:54:21.028Z,14.3
2017-08-20T01:55:01.377Z,14.39
2017-08-20T01:55:41.720Z,14.31
2017-08-20T01:56:22.166Z,14.29
2017-08-20T01:57:02.538Z,14.36
2017-08-20T01:57:42.896Z,14.17
2017-08-20T01:58:23.282Z,14.24
2017-08-20T01:59:03.741Z,14.24
2017-08-20T01:59:44.106Z,14.17
2017-08-20T02:00:24.557Z,14.11
2017-08-20T02:01:04.933Z,14.12
2017-08-20T02:01:45.408Z,14.11
2017-08-20T02:02:25.899Z,14.11
2017-08-20T02:03:06.273Z,14.13
2017-08-20T02:03:46.699Z,14.23
2017-08-20T02:04:27.161Z,14.08
2017-08-20T02:05:07.496Z,14.16
2017-08-20T02:05:47.939Z,14.23
2017-08-20T02:06:28.378Z,14.24
2017-08-20T02:07:08.739Z,14.3
2017-08-20T02:07:49.188Z,14.39
2017-08-20T02:08:29.636Z,14.3
2017-08-20T02:09:10.086Z,14.38
2017-08-20T02:09:50.470Z,14.41
2017-08-20T02:10:30.964Z,14.42
2017-08-20T02:11:11.320Z,14.49
2017-08-20T02:11:51.782Z,14.46
2017-08-20T02:12:32.187Z,14.49
2017-08-20T02:13:12.642Z,14.57
2017-08-20T02:13:53.112Z,14.57
2017-08-20T02:14:33.516Z,14.53
2017-08-20T02:15:13.849Z,14.52
2017-08-20T02:15:54.256Z,14.53
2017-08-20T02:16:34.707Z,14.61
2017-08-20T02:17:15.102Z,14.52
2017-08-20T02:17:55.521Z,14.46
2017-08-20T02:18:35.919Z,14.48
2017-08-20T02:19:16.296Z,14.41
2017-08-20T02:19:56.706Z,14.38
2017-08-20T02:20:37.116Z,14.38
2017-08-20T02:21:17.457Z,14.35
2017-08-20T02:21:57.948Z,14.24
2017-08-20T02:22:38.318Z,14.29
2017-08-20T02:23:18.698Z,14.24
2017-08-20T02:23:59.063Z,14.23
2017-08-20T02:24:39.595Z,14.21
2017-08-20T02:25:19.971Z,14.23
2017-08-20T02:26:00.351Z,14.29
2017-08-20T02:26:40.794Z,14.27
2017-08-20T02:27:21.160Z,14.42
2017-08-20T02:28:01.665Z,14.31
2017-08-20T02:28:42.063Z,14.34
2017-08-20T02:29:22.382Z,14.42
2017-08-20T02:30:02.750Z,14.39
2017-08-20T02:30:43.169Z,14.45
2017-08-20T02:31:23.616Z,14.44
2017-08-20T02:32:03.987Z,14.53
2017-08-20T02:32:44.429Z,14.56
2017-08-20T02:33:24.800Z,14.53
2017-08-20T02:34:05.239Z,14.46
2017-08-20T02:34:45.588Z,14.46
2017-08-20T02:35:26.065Z,14.45
2017-08-20T02:36:06.497Z,14.52
2017-08-20T02:36:46.873Z,14.56
2017-08-20T02:37:27.260Z,14.49
2017-08-20T02:38:07.618Z,14.54
2017-08-20T02:38:48.110Z,14.52
2017-08-20T02:39:28.468Z,14.56
2017-08-20T02:40:08.935Z,14.41
2017-08-20T02:40:49.304Z,14.46
2017-08-20T02:41:29.760Z,14.41
2017-08-20T02:42:10.167Z,14.48
2017-08-20T02:42:50.517Z,14.61
2017-08-20T02:43:30.953Z,14.56
2017-08-20T02:44:11.299Z,14.61
2017-08-20T02:44:51.730Z,14.63
2017-08-20T02:45:32.116Z,14.78
2017-08-20T02:46:12.545Z,14.93
2017-08-20T02:46:52.930Z,14.94
2017-08-20T02:47:33.282Z,14.95
2017-08-20T02:48:13.721Z,15.04
2017-08-20T02:48:54.215Z,15.04
2017-08-20T02:49:34.530Z,15.18
2017-08-20T02:50:14.899Z,15.18
2017-08-20T02:50:55.320Z,15.23
2017-08-20T02:51:35.735Z,15.3
2017-08-20T02:52:16.212Z,15.38
2017-08-20T02:52:56.573Z,15.43
2017-08-20T02:53:36.959Z,15.37
2017-08-20T02:54:17.363Z,15.41
2017-08-20T02:54:57.801Z,15.48
2017-08-20T02:55:38.202Z,15.48
2017-08-20T02:56:18.669Z,15.48
2017-08-20T02:56:59.001Z,15.51
2017-08-20T02:57:39.450Z,15.56
2017-08-20T02:58:19.904Z,15.62
2017-08-20T02:59:00.269Z,15.64
2017-08-20T02:59:40.662Z,15.66
2017-08-20T03:00:21.072Z,15.71
2017-08-20T03:01:01.529Z,15.71
2017-08-20T03:01:41.948Z,15.76
2017-08-20T03:02:22.323Z,15.8
2017-08-20T03:03:02.747Z,15.86
2017-08-20T03:03:43.213Z,15.84
2017-08-20T03:04:23.675Z,15.95
2017-08-20T03:05:04.111Z,15.93
2017-08-20T03:05:44.427Z,15.92
2017-08-20T03:06:24.902Z,15.92
2017-08-20T03:07:05.341Z,15.99
2017-08-20T03:07:45.715Z,16.06
2017-08-20T03:08:26.147Z,16.11
2017-08-20T03:09:06.485Z,16.07
2017-08-20T03:09:46.937Z,16.11
2017-08-20T03:10:27.332Z,16.11
2017-08-20T03:11:07.700Z,16.07
2017-08-20T03:11:48.109Z,16.07
2017-08-20T03:12:28.652Z,15.99
2017-08-20T03:13:09.002Z,16.01
2017-08-20T03:13:49.387Z,16.06
2017-08-20T03:14:29.776Z,16.04
2017-08-20T03:15:10.185Z,16.08
2017-08-20T03:15:50.558Z,16.01
2017-08-20T03:16:31.031Z,15.93
2017-08-20T03:17:11.484Z,15.95
2017-08-20T03:17:51.790Z,15.92
2017-08-20T03:18:32.227Z,15.85
2017-08-20T03:19:12.708Z,15.88
2017-08-20T03:19:52.999Z,15.89
2017-08-20T03:20:33.419Z,15.8
2017-08-20T03:21:13.809Z,15.85
2017-08-20T03:21:54.181Z,15.81
2017-08-20T03:22:34.624Z,15.81
2017-08-20T03:23:15.044Z,15.84
2017-08-20T03:23:55.442Z,15.85
2017-08-20T03:24:35.791Z,15.86
2017-08-20T03:25:16.245Z,15.84
2017-08-20T03:25:56.654Z,15.86
2017-08-20T03:26:36.991Z,15.85
2017-08-20T03:27:17.384Z,15.88
2017-08-20T03:27:57.805Z,15.86
2017-08-20T03:28:38.273Z,15.92
2017-08-20T03:29:18.630Z,15.91
2017-08-20T03:29:59.077Z,15.86
2017-08-20T03:30:39.467Z,15.93
2017-08-20T03:31:19.939Z,15.81
2017-08-20T03:32:00.288Z,15.81
2017-08-20T03:32:40.743Z,15.84
2017-08-20T03:33:21.069Z,15.85
2017-08-20T03:34:01.564Z,15.86
2017-08-20T03:34:42.031Z,15.89
2017-08-20T03:35:22.433Z,15.89
2017-08-20T03:36:02.842Z,15.91
2017-08-20T03:36:43.298Z,15.85
2017-08-20T03:37:23.691Z,15.92
2017-08-20T03:38:04.074Z,15.88
2017-08-20T03:38:44.470Z,15.81
2017-08-20T03:39:24.901Z,15.89
2017-08-20T03:40:05.327Z,15.95
2017-08-20T03:40:45.746Z,15.91
2017-08-20T03:41:26.090Z,15.92
2017-08-20T03:42:06.458Z,15.86
2017-08-20T03:42:46.874Z,15.8
2017-08-20T03:43:27.300Z,15.81
2017-08-20T03:44:07.688Z,15.78
2017-08-20T03:44:48.073Z,15.78
2017-08-20T03:45:28.492Z,15.67
2017-08-20T03:46:08.871Z,15.7
2017-08-20T03:46:49.261Z,15.7
2017-08-20T03:47:29.640Z,15.73
2017-08-20T03:48:10.154Z,15.7
2017-08-20T03:48:50.549Z,15.7
2017-08-20T03:49:31.113Z,15.74
2017-08-20T03:50:11.543Z,15.78
2017-08-20T03:50:51.953Z,15.81
2017-08-20T03:51:32.375Z,15.84
2017-08-20T03:52:12.794Z,15.84
2017-08-20T03:52:53.235Z,15.89
2017-08-20T03:53:33.638Z,15.89
2017-08-20T03:54:14.075Z,15.92
2017-08-20T03:54:54.554Z,15.85
2017-08-20T03:55:34.882Z,15.85
2017-08-20T03:56:15.351Z,15.84
2017-08-20T03:56:55.718Z,15.85
2017-08-20T03:57:36.175Z,15.91
2017-08-20T03:58:16.563Z,15.93
2017-08-20T03:58:56.978Z,15.92
2017-08-20T03:59:37.322Z,15.96
2017-08-20T04:00:17.712Z,15.96
2017-08-20T04:00:58.101Z,15.92
2017-08-20T04:01:38.551Z,15.86
2017-08-20T04:02:18.953Z,15.92
2017-08-20T04:02:59.326Z,15.84
2017-08-20T04:03:39.838Z,15.81
2017-08-20T04:04:20.180Z,15.84
2017-08-20T04:05:00.625Z,15.86
2017-08-20T04:05:40.991Z,15.84
2017-08-20T04:06:21.389Z,15.81
2017-08-20T04:07:01.749Z,15.8
2017-08-20T04:07:42.166Z,15.8
2017-08-20T04:08:22.682Z,15.86
2017-08-20T04:09:03.110Z,15.89
2017-08-20T04:09:43.520Z,15.88
2017-08-20T04:10:23.928Z,15.84
2017-08-20T04:11:04.347Z,15.98
2017-08-20T04:11:44.822Z,15.93
2017-08-20T04:12:25.221Z,15.91
2017-08-20T04:13:05.611Z,15.91
2017-08-20T04:13:46.021Z,15.89
2017-08-20T04:14:26.408Z,15.8
2017-08-20T04:15:06.875Z,15.84
2017-08-20T04:15:47.288Z,15.8
2017-08-20T04:16:27.650Z,15.85
2017-08-20T04:17:07.991Z,15.85
2017-08-20T04:17:48.487Z,15.84
2017-08-20T04:18:28.849Z,15.81
2017-08-20T04:19:09.303Z,15.88
2017-08-20T04:19:49.690Z,15.81
2017-08-20T04:20:30.083Z,15.84
2017-08-20T04:21:10.461Z,15.81
2017-08-20T04:21:50.952Z,15.86
2017-08-20T04:22:31.342Z,15.86
2017-08-20T04:23:11.817Z,15.86
2017-08-20T04:23:52.303Z,15.88
2017-08-20T04:24:32.747Z,15.85
2017-08-20T04:25:13.105Z,15.8
2017-08-20T04:25:53.542Z,15.89
2017-08-20T04:26:33.903Z,15.85
2017-08-20T04:27:14.270Z,15.91
2017-08-20T04:27:54.617Z,15.96
2017-08-20T04:28:35.161Z,15.89
2017-08-20T04:29:15.452Z,15.85
2017-08-20T04:29:55.869Z,15.88
2017-08-20T04:30:36.318Z,15.84
2017-08-20T04:31:16.725Z,15.89
2017-08-20T04:31:57.127Z,15.86
2017-08-20T04:32:37.486Z,15.85
2017-08-20T04:33:17.929Z,15.81
2017-08-20T04:33:58.493Z,15.81
2017-08-20T04:34:39.013Z,15.8
2017-08-20T04:35:19.443Z,15.8
2017-08-20T04:35:59.767Z,15.8
2017-08-20T04:36:40.174Z,15.76
2017-08-20T04:37:20.596Z,15.8
2017-08-20T04:38:00.943Z,15.85
2017-08-20T04:38:41.378Z,15.84
2017-08-20T04:39:21.812Z,15.8
2017-08-20T04:40:02.162Z,15.78
2017-08-20T04:40:42.634Z,15.8
2017-08-20T04:41:23.161Z,15.78
2017-08-20T04:42:03.626Z,15.8
2017-08-20T04:42:43.988Z,15.84
2017-08-20T04:43:24.446Z,15.84
2017-08-20T04:44:04.917Z,15.85
2017-08-20T04:44:45.222Z,15.85
2017-08-20T04:45:25.675Z,15.85
2017-08-20T04:46:06.029Z,15.81
2017-08-20T04:46:46.439Z,15.85
2017-08-20T04:47:26.817Z,15.85
2017-08-20T04:48:07.283Z,15.8
2017-08-20T04:48:47.583Z,15.84
2017-08-20T04:49:28.036Z,15.8
2017-08-20T04:50:08.475Z,15.85
2017-08-20T04:50:49.016Z,15.78
2017-08-20T04:51:29.372Z,15.77
2017-08-20T04:52:09.797Z,15.76
2017-08-20T04:52:50.192Z,15.73
2017-08-20T04:53:30.540Z,15.71
2017-08-20T04:54:11.018Z,15.68
2017-08-20T04:54:51.518Z,15.71
2017-08-20T04:55:32.555Z,15.71
2017-08-20T04:56:12.299Z,15.68
2017-08-20T04:56:52.682Z,15.64
2017-08-20T04:57:33.145Z,15.62
2017-08-20T04:58:13.564Z,15.64
2017-08-20T04:58:53.982Z,15.62
2017-08-20T04:59:34.329Z,15.62
2017-08-20T05:00:14.793Z,15.62
2017-08-20T05:00:55.176Z,15.6
2017-08-20T05:01:35.582Z,15.6
2017-08-20T05:02:16.055Z,15.6
2017-08-20T05:02:56.409Z,15.58
2017-08-20T05:03:36.823Z,15.6
2017-08-20T05:04:17.226Z,15.62
2017-08-20T05:04:57.627Z,15.58
2017-08-20T05:05:38.060Z,15.59
2017-08-20T05:06:18.524Z,15.6
2017-08-20T05:06:58.815Z,15.62
2017-08-20T05:07:39.234Z,15.66
2017-08-20T05:08:19.773Z,15.62
2017-08-20T05:09:00.107Z,15.62
2017-08-20T05:09:40.484Z,15.62
2017-08-20T05:10:20.893Z,15.62
2017-08-20T05:11:01.322Z,15.6
2017-08-20T05:11:41.769Z,15.59
2017-08-20T05:12:22.117Z,15.64
2017-08-20T05:13:02.514Z,15.68
2017-08-20T05:13:42.934Z,15.62
2017-08-20T05:14:23.365Z,15.64
2017-08-20T05:15:03.887Z,15.6
2017-08-20T05:15:44.251Z,15.48
2017-08-20T05:16:24.648Z,15.56
2017-08-20T05:17:05.111Z,15.52
2017-08-20T05:17:45.474Z,15.48
2017-08-20T05:18:25.906Z,15.53
2017-08-20T05:19:06.323Z,15.59
2017-08-20T05:19:46.765Z,15.56
2017-08-20T05:20:27.163Z,15.62
2017-08-20T05:21:07.556Z,15.58
2017-08-20T05:21:47.938Z,15.51
2017-08-20T05:22:28.381Z,15.51
2017-08-20T05:23:08.824Z,15.59
2017-08-20T05:23:49.253Z,15.59
2017-08-20T05:24:29.635Z,15.59
2017-08-20T05:25:10.070Z,15.6
2017-08-20T05:25:50.506Z,15.48
2017-08-20T05:26:30.908Z,15.49
2017-08-20T05:27:11.359Z,15.52
2017-08-20T05:27:51.724Z,15.55
2017-08-20T05:28:32.087Z,15.37
2017-08-20T05:29:12.533Z,15.41
2017-08-20T05:29:52.918Z,15.41
2017-08-20T05:30:33.315Z,15.52
2017-08-20T05:31:13.715Z,15.46
2017-08-20T05:31:54.159Z,15.55
2017-08-20T05:32:34.551Z,15.66
2017-08-20T05:33:14.964Z,15.66
2017-08-20T05:33:55.364Z,15.67
2017-08-20T05:34:35.743Z,15.73
2017-08-20T05:35:16.140Z,15.7
2017-08-20T05:35:56.552Z,15.78
2017-08-20T05:36:36.901Z,15.77
2017-08-20T05:37:17.277Z,15.88
2017-08-20T05:37:57.681Z,15.85
2017-08-20T05:38:38.119Z,15.84
2017-08-20T05:39:18.466Z,15.85
2017-08-20T05:39:58.914Z,15.8
2017-08-20T05:40:39.261Z,15.85
2017-08-20T05:41:19.686Z,15.88
2017-08-20T05:42:00.066Z,15.89
2017-08-20T05:42:40.407Z,15.88
2017-08-20T05:43:20.933Z,15.84
2017-08-20T05:44:01.225Z,15.92
2017-08-20T05:44:41.667Z,15.93
2017-08-20T05:45:22.066Z,16.1
2017-08-20T05:46:02.497Z,16.13
2017-08-20T05:46:42.895Z,16.37
2017-08-20T05:47:23.293Z,16.32
2017-08-20T05:48:03.635Z,16.5
2017-08-20T05:48:44.119Z,16.45
2017-08-20T05:49:24.478Z,16.45
2017-08-20T05:50:04.887Z,16.52
2017-08-20T05:50:45.265Z,16.52
2017-08-20T05:51:25.610Z,16.44
2017-08-20T05:52:06.166Z,16.3
2017-08-20T05:52:46.523Z,16.36
2017-08-20T05:53:26.972Z,16.27
2017-08-20T05:54:07.388Z,16.26
2017-08-20T05:54:47.763Z,16.27
2017-08-20T05:55:28.239Z,16.27
2017-08-20T05:56:08.607Z,16.37
2017-08-20T05:56:49.038Z,16.37
2017-08-20T05:57:29.447Z,16.48
2017-08-20T05:58:09.856Z,16.72
2017-08-20T05:58:50.338Z,16.88
2017-08-20T05:59:30.696Z,17.14
2017-08-20T06:00:11.073Z,17.43
2017-08-20T06:00:51.528Z,17.71
2017-08-20T06:01:32.068Z,18.01
2017-08-20T06:02:12.434Z,18.26
2017-08-20T06:02:52.876Z,18.46
2017-08-20T06:03:33.274Z,18.74
2017-08-20T06:04:13.686Z,19.07
2017-08-20T06:04:54.207Z,19.13
2017-08-20T06:05:34.593Z,19.35
2017-08-20T06:06:14.971Z,19.57
2017-08-20T06:06:55.468Z,19.75
2017-08-20T06:07:35.861Z,19.9
2017-08-20T06:08:16.212Z,20.02
2017-08-20T06:08:56.714Z,20.12
2017-08-20T06:09:36.993Z,20.26
2017-08-20T06:10:17.490Z,20.41
2017-08-20T06:10:57.841Z,20.46
2017-08-20T06:11:38.327Z,20.69
2017-08-20T06:12:18.719Z,20.82
2017-08-20T06:12:59.182Z,21.08
2017-08-20T06:13:39.587Z,21.28
2017-08-20T06:14:20.018Z,21.43
2017-08-20T06:15:00.489Z,21.51
2017-08-20T06:15:40.897Z,21.67
2017-08-20T06:16:21.351Z,21.89
2017-08-20T06:17:01.817Z,22.08
2017-08-20T06:17:42.173Z,22.26
2017-08-20T06:18:22.622Z,22.36
2017-08-20T06:19:03.105Z,22.42
2017-08-20T06:19:43.560Z,22.6
2017-08-20T06:20:23.955Z,22.63
2017-08-20T06:21:04.342Z,22.82
2017-08-20T06:21:44.746Z,22.99
2017-08-20T06:22:25.194Z,23.15
2017-08-20T06:23:05.577Z,23.15
2017-08-20T06:23:46.003Z,23.32
2017-08-20T06:24:26.385Z,23.39
2017-08-20T06:25:06.808Z,23.59
2017-08-20T06:25:47.283Z,23.75
2017-08-20T06:26:27.655Z,23.86
2017-08-20T06:27:08.123Z,24.05
2017-08-20T06:27:48.560Z,24.04
2017-08-20T06:28:28.966Z,24.11
2017-08-20T06:29:09.373Z,24.31
2017-08-20T06:29:49.736Z,24.41
2017-08-20T06:30:30.177Z,24.52
2017-08-20T06:31:10.597Z,24.48
2017-08-20T06:31:50.993Z,24.6
2017-08-20T06:32:31.440Z,24.56
2017-08-20T06:33:11.873Z,24.64
2017-08-20T06:33:52.231Z,24.82
2017-08-20T06:34:32.682Z,24.71
2017-08-20T06:35:13.076Z,24.84
2017-08-20T06:35:53.510Z,24.84
2017-08-20T06:36:34.020Z,24.87
2017-08-20T06:37:14.428Z,24.87
2017-08-20T06:37:54.780Z,24.9
2017-08-20T06:38:35.161Z,25.08
2017-08-20T06:39:15.598Z,25.14
2017-08-20T06:39:55.986Z,25.35
2017-08-20T06:40:36.483Z,25.34
2017-08-20T06:41:17.007Z,25.27
2017-08-20T06:41:57.354Z,25.27
2017-08-20T06:42:37.823Z,25.22
2017-08-20T06:43:18.196Z,25.09
2017-08-20T06:43:58.718Z,25.05
2017-08-20T06:44:39.144Z,25.22
2017-08-20T06:45:19.541Z,25.08
2017-08-20T06:46:00.099Z,25.17
2017-08-20T06:46:40.433Z,25.07
2017-08-20T06:47:20.885Z,24.84
2017-08-20T06:48:01.285Z,24.9
2017-08-20T06:48:41.643Z,24.79
2017-08-20T06:49:22.126Z,24.55
2017-08-20T06:50:02.516Z,24.3
2017-08-20T06:50:42.913Z,23.87
2017-08-20T06:51:23.276Z,23.39
2017-08-20T06:52:03.695Z,23.07
2017-08-20T06:52:44.063Z,22.74
2017-08-20T06:53:24.486Z,22.57
2017-08-20T06:54:04.922Z,22.45
2017-08-20T06:54:45.334Z,22.41
2017-08-20T06:55:25.720Z,22.21
2017-08-20T06:56:06.079Z,22.06
2017-08-20T06:56:46.536Z,21.89
2017-08-20T06:57:26.980Z,21.7
2017-08-20T06:58:07.506Z,21.15
2017-08-20T06:58:47.842Z,21.03
2017-08-20T06:59:28.232Z,20.88
2017-08-20T07:00:08.651Z,20.82
2017-08-20T07:00:49.025Z,20.69
2017-08-20T07:01:29.369Z,20.46
2017-08-20T07:02:10.310Z,20.33
2017-08-20T07:02:50.735Z,20.23
2017-08-20T07:03:31.180Z,20.15
2017-08-20T07:04:11.578Z,19.92
2017-08-20T07:04:51.973Z,19.89
2017-08-20T07:05:32.408Z,19.78
2017-08-20T07:06:12.803Z,19.85
2017-08-20T07:06:53.265Z,19.85
2017-08-20T07:07:33.684Z,19.62
2017-08-20T07:08:14.059Z,19.6
2017-08-20T07:08:54.578Z,19.6
2017-08-20T07:09:35.059Z,19.52
2017-08-20T07:10:15.565Z,19.47
2017-08-20T07:10:56.243Z,19.25
2017-08-20T07:11:36.625Z,19.24
2017-08-20T07:12:17.029Z,19.12
2017-08-20T07:12:57.496Z,19.06
2017-08-20T07:13:37.920Z,19.07
2017-08-20T07:14:18.324Z,18.96
2017-08-20T07:14:58.725Z,18.84
2017-08-20T07:15:39.090Z,18.76
2017-08-20T07:16:19.549Z,18.76
2017-08-20T07:16:59.891Z,18.71
2017-08-20T07:17:40.400Z,18.65
2017-08-20T07:18:20.835Z,18.57
2017-08-20T07:19:01.378Z,18.5
2017-08-20T07:19:41.789Z,18.34
2017-08-20T07:20:22.212Z,18.31
2017-08-20T07:21:02.577Z,18.29
2017-08-20T07:21:42.919Z,18.25
2017-08-20T07:22:23.337Z,18.16
2017-08-20T07:23:03.746Z,18.25
2017-08-20T07:23:44.140Z,18.14
2017-08-20T07:24:24.587Z,18.13
2017-08-20T07:25:05.023Z,18.07
2017-08-20T07:25:45.433Z,18.14
2017-08-20T07:26:25.832Z,18.11
2017-08-20T07:27:06.234Z,18.02
2017-08-20T07:27:46.694Z,18.01
2017-08-20T07:28:27.053Z,18.05
2017-08-20T07:29:07.454Z,17.99
2017-08-20T07:29:47.829Z,17.95
2017-08-20T07:30:28.251Z,17.8
2017-08-20T07:31:08.692Z,17.83
2017-08-20T07:31:49.031Z,17.76
2017-08-20T07:32:29.515Z,17.77
2017-08-20T07:33:09.916Z,17.77
2017-08-20T07:33:50.307Z,17.77
2017-08-20T07:34:30.684Z,17.74
2017-08-20T07:35:11.102Z,17.8
2017-08-20T07:35:51.503Z,17.77
2017-08-20T07:36:31.865Z,17.8
2017-08-20T07:37:12.363Z,17.73
2017-08-20T07:37:52.744Z,17.79
2017-08-20T07:38:33.181Z,17.87
2017-08-20T07:39:13.621Z,17.86
2017-08-20T07:39:53.989Z,17.87
2017-08-20T07:40:34.433Z,17.91
2017-08-20T07:41:14.817Z,17.87
2017-08-20T07:41:55.204Z,17.94
2017-08-20T07:42:35.568Z,18.01
2017-08-20T07:43:16.012Z,18.02
2017-08-20T07:43:56.430Z,18.01
2017-08-20T07:44:36.810Z,18.05
2017-08-20T07:45:17.383Z,18.19
2017-08-20T07:45:57.755Z,18.17
2017-08-20T07:46:38.147Z,18.14
2017-08-20T07:47:18.492Z,18.31
2017-08-20T07:47:58.919Z,18.26
2017-08-20T07:48:39.313Z,18.29
2017-08-20T07:49:19.743Z,18.34
2017-08-20T07:50:00.159Z,18.34
2017-08-20T07:50:40.617Z,18.49
2017-08-20T07:51:21.054Z,18.47
2017-08-20T07:52:01.434Z,18.54
2017-08-20T07:52:41.798Z,18.6
2017-08-20T07:53:22.199Z,18.75
2017-08-20T07:54:02.606Z,18.74
2017-08-20T07:54:43.017Z,18.87
2017-08-20T07:55:23.398Z,19.01
2017-08-20T07:56:03.723Z,18.99
2017-08-20T07:56:44.243Z,19.05
2017-08-20T07:57:24.665Z,19.17
2017-08-20T07:58:05.101Z,19.25
2017-08-20T07:58:46.120Z,19.31
2017-08-20T07:59:25.910Z,19.4
2017-08-20T08:00:06.289Z,19.49
2017-08-20T08:00:46.711Z,19.5
2017-08-20T08:01:27.158Z,19.57
2017-08-20T08:02:07.514Z,19.62
2017-08-20T08:02:47.936Z,19.75
2017-08-20T08:03:28.335Z,19.71
2017-08-20T08:04:08.767Z,19.86
2017-08-20T08:04:49.238Z,19.79
2017-08-20T08:05:29.689Z,19.9
2017-08-20T08:06:10.103Z,20.05
2017-08-20T08:06:50.464Z,20.05
2017-08-20T08:07:30.852Z,20.15
2017-08-20T08:08:11.272Z,20.3
2017-08-20T08:08:51.650Z,20.44
2017-08-20T08:09:32.139Z,20.57
2017-08-20T08:10:12.530Z,20.71
2017-08-20T08:10:52.868Z,20.85
2017-08-20T08:11:33.307Z,21.01
2017-08-20T08:12:13.703Z,21.09
2017-08-20T08:12:54.114Z,21.37
2017-08-20T08:13:34.565Z,21.38
2017-08-20T08:14:14.918Z,21.63
2017-08-20T08:14:55.369Z,21.86
2017-08-20T08:15:35.788Z,21.98
2017-08-20T08:16:16.195Z,22.08
2017-08-20T08:16:56.548Z,22.19
2017-08-20T08:17:36.975Z,22.35
2017-08-20T08:18:17.672Z,22.41
2017-08-20T08:18:58.354Z,22.57
2017-08-20T08:19:38.777Z,22.57
2017-08-20T08:20:19.180Z,22.63
2017-08-20T08:20:59.647Z,22.6
2017-08-20T08:21:40.230Z,22.79
2017-08-20T08:22:20.562Z,22.81
2017-08-20T08:23:01.081Z,22.93
2017-08-20T08:23:41.502Z,23.09
2017-08-20T08:24:21.989Z,23.22
2017-08-20T08:25:02.444Z,23.32
2017-08-20T08:25:42.841Z,23.56
2017-08-20T08:26:23.275Z,23.72
2017-08-20T08:27:03.687Z,23.82
2017-08-20T08:27:44.073Z,24.06
2017-08-20T08:28:24.575Z,24.16
2017-08-20T08:29:05.047Z,24.42
2017-08-20T08:29:45.420Z,24.53
2017-08-20T08:30:25.866Z,24.63
2017-08-20T08:31:06.275Z,24.56
2017-08-20T08:31:46.709Z,24.56
2017-08-20T08:32:27.224Z,24.63
2017-08-20T08:33:07.516Z,24.64
2017-08-20T08:33:47.987Z,24.66
2017-08-20T08:34:28.472Z,24.75
2017-08-20T08:35:08.888Z,24.77
2017-08-20T08:35:49.253Z,24.87
2017-08-20T08:36:29.612Z,25.01
2017-08-20T08:37:10.035Z,25.05
2017-08-20T08:37:50.504Z,25.04
2017-08-20T08:38:30.907Z,25.05
2017-08-20T08:39:11.296Z,24.99
2017-08-20T08:39:51.730Z,24.97
2017-08-20T08:40:32.073Z,24.89
2017-08-20T08:41:12.511Z,24.79
2017-08-20T08:41:52.964Z,24.86
2017-08-20T08:42:33.429Z,24.89
2017-08-20T08:43:13.866Z,24.94
2017-08-20T08:43:54.188Z,25.04
2017-08-20T08:44:34.677Z,25.05
2017-08-20T08:45:15.074Z,25.07
2017-08-20T08:45:55.503Z,25.07
2017-08-20T08:46:35.928Z,25.14
2017-08-20T08:47:16.423Z,25.07
2017-08-20T08:47:56.804Z,25.05
2017-08-20T08:48:37.209Z,24.86
2017-08-20T08:49:17.651Z,24.86
2017-08-20T08:49:58.081Z,24.7
2017-08-20T08:50:38.492Z,24.68
2017-08-20T08:51:18.846Z,24.68
2017-08-20T08:51:59.242Z,24.77
2017-08-20T08:52:39.680Z,24.89
2017-08-20T08:53:20.138Z,24.92
2017-08-20T08:54:00.598Z,24.94
2017-08-20T08:54:40.982Z,24.87
2017-08-20T08:55:21.379Z,24.84
2017-08-20T08:56:01.774Z,24.75
2017-08-20T08:56:42.191Z,24.67
2017-08-20T08:57:22.625Z,24.63
2017-08-20T08:58:03.021Z,24.46
2017-08-20T08:58:43.485Z,24.29
2017-08-20T08:59:23.917Z,24.27
2017-08-20T09:00:04.327Z,24.12
2017-08-20T09:00:44.786Z,23.94
2017-08-20T09:01:25.257Z,23.97